Time,TemperatureF,DewpointF,PressureIn,WindDirection,WindDirectionDegrees,WindSpeedMPH,WindSpeedGustMPH,Humidity,HourlyPrecipIn,Conditions,Clouds,dailyrainin,SoftwareType,DateUTC
2013-03-02 00:14:00,27.1,-61.1,29.93,SW,225,0.0,-999.0,1,-99.99,,,0.00,Acu-Link.com,2013-03-02 06:14:00,
2013-03-02 00:29:00,26.1,-61.8,29.93,ENE,67,0.0,-999.0,1,-99.99,,,0.00,Acu-Link.com,2013-03-02 06:29:00,
2013-03-02 00:44:00,25.7,-62.0,29.93,ENE,67,0.0,-999.0,1,-99.99,,,0.00,Acu-Link.com,2013-03-02 06:44:00,
2013-03-02 00:59:00,26.1,-61.8,29.93,WSW,247,0.0,-999.0,1,-99.99,,,0.00,Acu-Link.com,2013-03-02 06:59:00,
2013-03-02 01:14:00,24.8,-62.6,29.93,WSW,247,0.0,-999.0,1,-99.99,,,0.00,Acu-Link.com,2013-03-02 07:14:00,
2013-03-02 01:29:00,25.0,-62.4,29.92,WSW,247,0.0,-999.0,1,-99.99,,,0.00,Acu-Link.com,2013-03-02 07:29:00,
2013-03-02 01:45:00,25.9,-61.9,29.92,South,180,0.0,-999.0,1,-99.99,,,0.00,Acu-Link.com,2013-03-02 07:45:00,
2013-03-02 02:00:00,25.2,-62.3,29.92,NW,315,0.0,-999.0,1,-99.99,,,0.00,Acu-Link.com,2013-03-02 08:00:00,
2013-03-02 02:15:00,26.1,-61.8,29.92,WNW,292,0.0,-999.0,1,-99.99,,,0.00,Acu-Link.com,2013-03-02 08:15:00,
2013-03-02 02:30:00,25.9,-61.9,29.92,NNW,337,0.0,-999.0,1,-99.99,,,0.00,Acu-Link.com,2013-03-02 08:30:00,
2013-03-02 02:45:00,26.2,-61.7,29.92,NNE,22,0.0,-999.0,1,-99.99,,,0.00,Acu-Link.com,2013-03-02 08:45:00,
2013-03-02 03:00:00,27.0,-61.2,29.92,NW,315,0.0,-999.0,1,-99.99,,,0.00,Acu-Link.com,2013-03-02 09:00:00,
2013-03-02 03:18:00,26.6,-61.4,29.92,NW,315,0.0,-999.0,1,-99.99,,,0.00,Acu-Link.com,2013-03-02 09:18:00,
2013-03-02 03:33:00,25.7,-62.0,29.92,SSE,157,0.0,-999.0,1,-99.99,,,0.00,Acu-Link.com,2013-03-02 09:33:00,
2013-03-02 03:48:00,26.2,-61.7,29.92,WNW,292,0.0,-999.0,1,-99.99,,,0.00,Acu-Link.com,2013-03-02 09:48:00,
2013-03-02 04:03:00,26.1,-61.8,29.92,WNW,292,0.0,-999.0,1,-99.99,,,0.00,Acu-Link.com,2013-03-02 10:03:00,
2013-03-02 04:18:00,26.1,-61.8,29.93,WNW,292,0.0,-999.0,1,-99.99,,,0.00,Acu-Link.com,2013-03-02 10:18:00,
2013-03-02 04:34:00,25.5,-62.1,29.94,North,0,0.0,-999.0,1,-99.99,,,0.00,Acu-Link.com,2013-03-02 10:34:00,
2013-03-02 04:49:00,25.9,-61.9,29.94,WNW,292,0.0,-999.0,1,-99.99,,,0.00,Acu-Link.com,2013-03-02 10:49:00,
2013-03-02 05:04:00,25.9,-61.9,29.94,NNE,22,0.0,-999.0,1,-99.99,,,0.00,Acu-Link.com,2013-03-02 11:04:00,
2013-03-02 05:19:00,26.2,-61.7,29.94,ENE,67,0.0,-999.0,1,-99.99,,,0.00,Acu-Link.com,2013-03-02 11:19:00,
2013-03-02 05:34:00,26.1,-61.8,29.94,NW,315,0.0,-999.0,1,-99.99,,,0.00,Acu-Link.com,2013-03-02 11:34:00,
2013-03-02 05:49:00,26.1,-61.8,29.95,West,270,0.0,-999.0,1,-99.99,,,0.00,Acu-Link.com,2013-03-02 11:49:00,
2013-03-02 06:04:00,26.4,-61.6,29.95,ENE,67,0.0,-999.0,1,-99.99,,,0.00,Acu-Link.com,2013-03-02 12:04:00,
2013-03-02 06:19:00,27.3,-61.0,29.95,West,270,0.0,-999.0,1,-99.99,,,0.00,Acu-Link.com,2013-03-02 12:19:00,
2013-03-02 06:34:00,28.6,-60.2,29.96,SW,225,0.0,-999.0,1,-99.99,,,0.00,Acu-Link.com,2013-03-02 12:34:00,
2013-03-02 06:50:00,29.8,-59.4,29.96,NNW,337,1.1,-999.0,1,-99.99,,,0.00,Acu-Link.com,2013-03-02 12:50:00,
2013-03-02 07:05:00,30.7,-58.9,29.97,NE,45,2.2,-999.0,1,-99.99,,,0.00,Acu-Link.com,2013-03-02 13:05:00,
2013-03-02 07:20:00,31.5,-58.4,29.96,NNW,337,3.2,-999.0,1,-99.99,,,0.00,Acu-Link.com,2013-03-02 13:20:00,
2013-03-02 07:35:00,32.4,-57.8,29.97,NW,315,6.3,-999.0,1,-99.99,,,0.00,Acu-Link.com,2013-03-02 13:35:00,
2013-03-02 07:50:00,33.3,9.9,29.98,NNW,337,2.7,-999.0,37,-99.99,,,0.00,Acu-Link.com,2013-03-02 13:50:00,
2013-03-02 08:05:00,33.6,-57.1,29.98,North,0,4.2,-999.0,1,-99.99,,,0.00,Acu-Link.com,2013-03-02 14:05:00,
2013-03-02 08:20:00,34.2,-56.7,29.99,WNW,292,8.3,-999.0,1,-99.99,,,0.00,Acu-Link.com,2013-03-02 14:20:00,
2013-03-02 08:35:00,34.9,-56.3,29.99,NNW,337,4.7,-999.0,1,-99.99,,,0.00,Acu-Link.com,2013-03-02 14:35:00,
2013-03-02 08:50:00,35.6,32.1,29.99,WNW,292,3.7,-999.0,87,-99.99,,,0.00,Acu-Link.com,2013-03-02 14:50:00,
2013-03-02 09:06:00,36.3,35.8,29.99,WNW,292,4.7,-999.0,98,-99.99,,,0.00,Acu-Link.com,2013-03-02 15:06:00,
2013-03-02 09:21:00,36.3,-55.4,29.99,West,270,4.7,-999.0,1,-99.99,,,0.00,Acu-Link.com,2013-03-02 15:21:00,
2013-03-02 09:36:00,37.0,-55.0,29.99,NW,315,3.2,-999.0,1,-99.99,,,0.00,Acu-Link.com,2013-03-02 15:36:00,
2013-03-02 09:51:00,37.6,-54.6,29.99,West,270,9.9,-999.0,1,-99.99,,,0.00,Acu-Link.com,2013-03-02 15:51:00,
2013-03-02 10:06:00,38.3,-54.2,29.99,NE,45,3.2,-999.0,1,-99.99,,,0.00,Acu-Link.com,2013-03-02 16:06:00,
2013-03-02 10:21:00,38.1,-54.3,29.99,NE,45,4.7,-999.0,1,-99.99,,,0.00,Acu-Link.com,2013-03-02 16:21:00,
2013-03-02 10:36:00,38.1,-54.3,29.99,WNW,292,7.8,-999.0,1,-99.99,,,0.00,Acu-Link.com,2013-03-02 16:36:00,
2013-03-02 10:51:00,36.9,-55.0,30.00,West,270,5.8,-999.0,1,-99.99,,,0.00,Acu-Link.com,2013-03-02 16:51:00,
2013-03-02 11:06:00,36.9,-55.0,30.00,WNW,292,4.7,-999.0,1,-99.99,,,0.00,Acu-Link.com,2013-03-02 17:06:00,
2013-03-02 11:22:00,37.8,-54.5,29.99,NNE,22,8.9,-999.0,1,-99.99,,,0.00,Acu-Link.com,2013-03-02 17:22:00,
2013-03-02 11:37:00,38.3,-54.2,29.99,NNW,337,3.7,-999.0,1,-99.99,,,0.00,Acu-Link.com,2013-03-02 17:37:00,
2013-03-02 11:52:00,37.9,-54.4,29.99,ENE,67,5.3,-999.0,1,-99.99,,,0.00,Acu-Link.com,2013-03-02 17:52:00,
2013-03-02 12:07:00,37.0,-55.0,29.98,WNW,292,4.2,-999.0,1,-99.99,,,0.00,Acu-Link.com,2013-03-02 18:07:00,
2013-03-02 12:22:00,37.0,-55.0,29.98,NNW,337,5.3,-999.0,1,-99.99,,,0.00,Acu-Link.com,2013-03-02 18:22:00,
2013-03-02 12:37:00,36.9,-55.0,29.98,WNW,292,8.3,-999.0,1,-99.99,,,0.00,Acu-Link.com,2013-03-02 18:37:00,
2013-03-02 12:52:00,37.0,-55.0,29.97,West,270,3.7,-999.0,1,-99.99,,,0.00,Acu-Link.com,2013-03-02 18:52:00,
2013-03-02 13:07:00,37.6,-54.6,29.96,NNW,337,8.9,-999.0,1,-99.99,,,0.00,Acu-Link.com,2013-03-02 19:07:00,
2013-03-02 13:22:00,38.3,-54.2,29.96,North,0,9.4,-999.0,1,-99.99,,,0.00,Acu-Link.com,2013-03-02 19:22:00,
2013-03-02 13:38:00,37.4,-54.7,29.95,NNW,337,5.8,-999.0,1,-99.99,,,0.00,Acu-Link.com,2013-03-02 19:38:00,
2013-03-02 13:53:00,37.0,-55.0,29.96,NE,45,8.9,-999.0,1,-99.99,,,0.00,Acu-Link.com,2013-03-02 19:53:00,
2013-03-02 14:08:00,37.6,-54.6,29.96,NE,45,5.3,-999.0,1,-99.99,,,0.00,Acu-Link.com,2013-03-02 20:08:00,
2013-03-02 14:23:00,37.2,-54.8,29.96,North,0,7.3,-999.0,1,-99.99,,,0.00,Acu-Link.com,2013-03-02 20:23:00,
2013-03-02 14:38:00,36.9,-55.0,29.96,NE,45,4.2,-999.0,1,-99.99,,,0.00,Acu-Link.com,2013-03-02 20:38:00,
2013-03-02 14:53:00,36.7,-55.1,29.96,North,0,4.7,-999.0,1,-99.99,,,0.00,Acu-Link.com,2013-03-02 20:53:00,
2013-03-02 15:08:00,36.1,-55.5,29.96,East,90,5.3,-999.0,1,-99.99,,,0.00,Acu-Link.com,2013-03-02 21:08:00,
2013-03-02 15:23:00,36.9,-55.0,29.96,WNW,292,8.9,-999.0,1,-99.99,,,0.00,Acu-Link.com,2013-03-02 21:23:00,
2013-03-02 15:38:00,36.1,-55.5,29.96,WNW,292,7.8,-999.0,1,-99.99,,,0.00,Acu-Link.com,2013-03-02 21:38:00,
2013-03-02 15:54:00,36.7,-55.1,29.96,West,270,2.7,-999.0,1,-99.99,,,0.00,Acu-Link.com,2013-03-02 21:54:00,
2013-03-02 16:09:00,36.1,-55.5,29.96,WNW,292,3.7,-999.0,1,-99.99,,,0.00,Acu-Link.com,2013-03-02 22:09:00,
2013-03-02 16:24:00,36.3,-55.4,29.97,NNW,337,5.8,-999.0,1,-99.99,,,0.00,Acu-Link.com,2013-03-02 22:24:00,
2013-03-02 16:39:00,36.1,-55.5,29.98,NE,45,4.7,-999.0,1,-99.99,,,0.00,Acu-Link.com,2013-03-02 22:39:00,
2013-03-02 16:54:00,35.8,-55.7,29.98,West,270,6.8,-999.0,1,-99.99,,,0.00,Acu-Link.com,2013-03-02 22:54:00,
2013-03-02 17:09:00,35.6,-55.8,29.98,NNW,337,6.8,-999.0,1,-99.99,,,0.00,Acu-Link.com,2013-03-02 23:09:00,
2013-03-02 17:24:00,35.6,-55.8,29.99,WNW,292,6.3,-999.0,1,-99.99,,,0.00,Acu-Link.com,2013-03-02 23:24:00,
2013-03-02 17:39:00,35.2,-56.1,30.00,NE,45,4.2,-999.0,1,-99.99,,,0.00,Acu-Link.com,2013-03-02 23:39:00,
2013-03-02 17:54:00,35.2,-56.1,30.00,NNW,337,6.8,-999.0,1,-99.99,,,0.00,Acu-Link.com,2013-03-02 23:54:00,
2013-03-02 18:10:00,35.2,-56.1,29.99,North,0,8.9,-999.0,1,-99.99,,,0.00,Acu-Link.com,2013-03-03 00:10:00,
2013-03-02 18:25:00,35.2,-56.1,30.00,WNW,292,10.9,-999.0,1,-99.99,,,0.00,Acu-Link.com,2013-03-03 00:25:00,
2013-03-02 18:40:00,35.2,-56.1,30.01,North,0,5.8,-999.0,1,-99.99,,,0.00,Acu-Link.com,2013-03-03 00:40:00,
2013-03-02 18:55:00,35.1,-56.1,30.01,West,270,5.8,-999.0,1,-99.99,,,0.00,Acu-Link.com,2013-03-03 00:55:00,
2013-03-02 19:10:00,35.1,-56.1,30.02,WNW,292,7.3,-999.0,1,-99.99,,,0.00,Acu-Link.com,2013-03-03 01:10:00,
2013-03-02 19:25:00,35.1,-56.1,30.02,NNW,337,4.7,-999.0,1,-99.99,,,0.00,Acu-Link.com,2013-03-03 01:25:00,
2013-03-02 19:40:00,34.9,-56.3,30.02,North,0,5.8,-999.0,1,-99.99,,,0.00,Acu-Link.com,2013-03-03 01:40:00,
2013-03-02 19:55:00,34.9,-56.3,30.02,NNE,22,7.8,-999.0,1,-99.99,,,0.00,Acu-Link.com,2013-03-03 01:55:00,
2013-03-02 20:10:00,34.5,-56.5,30.02,NNW,337,6.3,-999.0,1,-99.99,,,0.00,Acu-Link.com,2013-03-03 02:10:00,
2013-03-02 20:26:00,34.7,-56.4,30.02,NNE,22,4.7,-999.0,1,-99.99,,,0.00,Acu-Link.com,2013-03-03 02:26:00,
2013-03-02 20:41:00,34.3,-56.6,30.02,WSW,247,3.7,-999.0,1,-99.99,,,0.00,Acu-Link.com,2013-03-03 02:41:00,
2013-03-02 20:56:00,34.0,-56.8,30.02,NNE,22,3.7,-999.0,1,-99.99,,,0.00,Acu-Link.com,2013-03-03 02:56:00,
2013-03-02 21:11:00,33.6,-57.1,30.02,North,0,2.7,-999.0,1,-99.99,,,0.00,Acu-Link.com,2013-03-03 03:11:00,
2013-03-02 21:26:00,33.1,-57.4,30.02,North,0,4.7,-999.0,1,-99.99,,,0.00,Acu-Link.com,2013-03-03 03:26:00,
2013-03-02 21:41:00,32.9,-57.5,30.02,NNW,337,8.9,-999.0,1,-99.99,,,0.00,Acu-Link.com,2013-03-03 03:41:00,
2013-03-02 21:56:00,32.7,-57.6,30.02,NNW,337,5.8,-999.0,1,-99.99,,,0.00,Acu-Link.com,2013-03-03 03:56:00,
2013-03-02 22:11:00,32.0,-58.1,30.02,ENE,67,2.7,-999.0,1,-99.99,,,0.00,Acu-Link.com,2013-03-03 04:11:00,
2013-03-02 22:26:00,31.3,-58.5,30.02,NE,45,2.2,-999.0,1,-99.99,,,0.00,Acu-Link.com,2013-03-03 04:26:00,
2013-03-02 22:42:00,30.6,-58.9,30.02,NE,45,0.0,-999.0,1,-99.99,,,0.00,Acu-Link.com,2013-03-03 04:42:00,
2013-03-02 22:57:00,28.9,-60.0,30.02,East,90,0.0,-999.0,1,-99.99,,,0.00,Acu-Link.com,2013-03-03 04:57:00,
2013-03-02 23:12:00,27.9,27.4,30.02,WNW,292,0.0,-999.0,98,-99.99,,,0.00,Acu-Link.com,2013-03-03 05:12:00,
2013-03-02 23:27:00,26.6,10.0,30.01,North,0,0.0,-999.0,49,-99.99,,,0.00,Acu-Link.com,2013-03-03 05:27:00,
2013-03-02 23:42:00,25.7,-62.0,30.01,North,0,0.0,-999.0,1,-99.99,,,0.00,Acu-Link.com,2013-03-03 05:42:00,
2013-03-02 23:57:00,24.8,-62.6,30.01,West,270,0.0,-999.0,1,-99.99,,,0.00,Acu-Link.com,2013-03-03 05:57:00,